Latest Weather Observations for Jimna

IDQ60801

Issued at 4:35 pm EST Thursday 2 October 2014 (issued every 30 minutes, with the page automatically refreshed every 10 minutes)

About weather observations | Map of weather stations | Latest weather observations for QLD | Other Formats
Station Details ID: 040651 Name: JIMNA FORESTRY Lat: -26.66 Lon: 152.46 Height: 523.0 m
Data from the previous 72 hours. | See also: Recent months at Jimna
Date/Time
EST
Temp
°C
App
Temp
°C
Dew
Point
Rel
Hum
%
Delta-T
°C
Wind Press
QNH
hPa
Press
MSL
hPa
Rain
since 9 am
mm
Dir
 
Spd
km/h
Gust
km/h
Spd
kts
Gust
kts
02/04:30pm 17.8 - 10.2 61 4.1 - - - - - - - 0.0
02/04:00pm 18.9 - 10.5 58 4.6 - - - - - - - 0.0
02/03:30pm 18.7 - 10.0 57 4.8 - - - - - - - 0.0
02/03:00pm 19.4 - 9.9 54 5.2 - - - - - - - 0.0
02/02:30pm 20.6 - 9.2 48 6.2 - - - - - - - 0.0
02/02:00pm 21.3 - 9.9 48 6.3 - - - - - - - 0.0
02/01:30pm 21.8 - 10.9 50 6.2 - - - - - - - 0.0
02/01:00pm 20.7 - 9.3 48 6.2 - - - - - - - 0.0
02/12:30pm 20.1 - 9.1 49 6.0 - - - - - - - 0.0
02/12:00pm 21.3 - 8.2 43 7.0 - - - - - - - 0.0
02/11:30am 19.7 - 8.4 48 6.0 - - - - - - - 0.0
02/11:00am 19.3 - 8.6 50 5.7 - - - - - - - 0.0
02/10:30am 18.1 - 9.7 58 4.6 - - - - - - - 0.0
02/10:00am 18.6 - 9.7 56 4.8 - - - - - - - 0.0
02/09:30am 17.4 - 10.3 63 3.9 - - - - - - - 0.0
02/09:00am 17.0 - 9.2 60 4.2 - - - - - - - 0.0
02/08:30am 16.7 - 9.9 64 3.7 - - - - - - - 0.0
02/08:00am 15.8 - 9.9 68 3.2 - - - - - - - 0.0
02/07:30am 15.4 - 10.2 71 2.8 - - - - - - - 0.0
02/07:00am 15.0 - 9.6 70 2.9 - - - - - - - 0.0
02/06:30am 14.4 - 9.4 72 2.6 - - - - - - - 0.0
02/06:00am 14.1 - 9.3 73 2.5 - - - - - - - 0.0
02/05:30am 14.2 - 9.6 74 2.4 - - - - - - - 0.0
02/05:00am 14.4 - 9.6 73 2.5 - - - - - - - 0.0
02/04:30am 14.4 - 9.8 74 2.4 - - - - - - - 0.0
02/04:00am 14.7 - 10.3 75 2.4 - - - - - - - 0.0
02/03:30am 14.7 - 10.5 76 2.3 - - - - - - - 0.0
02/03:00am 14.8 - 10.6 76 2.3 - - - - - - - 0.0
02/02:30am 14.9 - 10.9 77 2.2 - - - - - - - 0.0
02/02:00am 15.0 - 11.0 77 2.2 - - - - - - - 0.0
02/01:30am 15.3 - 11.5 78 2.1 - - - - - - - 0.0
02/01:00am 15.5 - 11.9 79 2.0 - - - - - - - 0.0
02/12:30am 15.9 - 12.3 79 2.0 - - - - - - - 0.0
02/12:00am 16.2 - 12.4 78 2.1 - - - - - - - 0.0
 
Date/Time
EST
Temp
°C
App
Temp
°C
Dew
Point
Rel
Hum
%
Delta-T
°C
Wind Press
QNH
hPa
Press
MSL
hPa
Rain
since 9 am
mm
Dir
 
Spd
km/h
Gust
km/h
Spd
kts
Gust
kts
01/11:30pm 17.0 - 13.3 79 2.1 - - - - - - - 0.0
01/11:00pm 17.4 - 13.9 80 2.0 - - - - - - - 0.0
01/10:30pm 17.5 - 13.8 79 2.2 - - - - - - - 0.0
01/10:00pm 18.3 - 13.6 74 2.7 - - - - - - - 0.0
01/09:30pm 19.9 - 9.8 52 5.5 - - - - - - - 0.0
01/09:00pm 18.7 - 3.3 36 7.4 - - - - - - - 0.0
01/08:30pm 19.5 - 3.6 35 7.7 - - - - - - - 0.0
01/08:00pm 20.8 - 4.0 33 8.3 - - - - - - - 0.0
01/07:30pm 23.7 - 3.6 27 10.1 - - - - - - - 0.0
01/07:00pm 23.5 - 4.0 28 9.8 - - - - - - - 0.0
01/06:30pm 22.6 - 6.8 36 8.3 - - - - - - - 0.0
01/06:00pm 24.0 - 6.7 33 9.2 - - - - - - - 0.0
01/05:30pm 25.6 - 9.0 35 9.2 - - - - - - - 0.0
01/05:00pm 28.0 - 5.6 24 11.9 - - - - - - - 0.0
01/04:30pm 28.4 - 6.5 25 11.9 - - - - - - - 0.0
01/04:00pm 29.4 - 8.5 27 11.8 - - - - - - - 0.0
01/03:30pm 28.7 - 7.3 26 11.8 - - - - - - - 0.0
01/03:00pm 29.3 - 7.8 26 12.0 - - - - - - - 0.0
01/02:30pm 29.2 - 7.2 25 12.1 - - - - - - - 0.0
01/02:00pm 28.9 - 7.5 26 11.8 - - - - - - - 0.0
01/01:30pm 28.8 - 8.5 28 11.4 - - - - - - - 0.0
01/01:00pm 28.2 - 8.5 29 11.0 - - - - - - - 0.0
01/12:30pm 27.3 - 8.7 31 10.4 - - - - - - - 0.0
01/12:00pm 26.9 - 9.7 34 9.8 - - - - - - - 0.0
01/11:30am 26.4 - 10.1 36 9.3 - - - - - - - 0.0
01/11:00am 26.0 - 11.4 40 8.5 - - - - - - - 0.0
01/10:30am 24.9 - 10.0 39 8.4 - - - - - - - 0.0
01/10:00am 22.8 - 9.9 44 7.2 - - - - - - - 0.0
01/09:30am 22.7 - 11.7 49 6.3 - - - - - - - 0.0
01/09:00am 21.4 - 10.6 50 6.1 - - - - - - - 0.0
01/08:30am 20.6 - 11.5 56 5.2 - - - - - - - 0.0
01/08:00am 19.3 - 11.3 60 4.5 - - - - - - - 0.0
01/07:30am 17.1 - 11.6 70 3.1 - - - - - - - 0.0
01/07:00am 15.1 - 12.2 83 1.6 - - - - - - - 0.0
01/06:30am 12.2 - 10.9 92 0.7 - - - - - - - 0.0
01/06:00am 11.0 - 9.8 92 0.6 - - - - - - - 0.0
01/05:30am 11.1 - 9.9 92 0.6 - - - - - - - 0.0
01/05:00am 11.3 - 10.0 92 0.7 - - - - - - - 0.0
01/04:30am 11.4 - 10.0 91 0.7 - - - - - - - 0.0
01/04:00am 11.6 - 10.2 91 0.7 - - - - - - - 0.0
01/03:30am 11.9 - 10.3 90 0.8 - - - - - - - 0.0
01/03:00am 12.1 - 10.3 89 1.0 - - - - - - - 0.0
01/02:30am 12.2 - 10.3 88 1.0 - - - - - - - 0.0
01/02:00am 12.4 - 10.5 88 1.0 - - - - - - - 0.0
01/01:30am 12.8 - 10.7 87 1.1 - - - - - - - 0.0
01/01:00am 13.1 - 10.8 86 1.2 - - - - - - - 0.0
01/12:30am 13.2 - 10.9 86 1.2 - - - - - - - 0.0
01/12:00am 13.5 - 11.0 85 1.4 - - - - - - - 0.0
 
Date/Time
EST
Temp
°C
App
Temp
°C
Dew
Point
Rel
Hum
%
Delta-T
°C
Wind Press
QNH
hPa
Press
MSL
hPa
Rain
since 9 am
mm
Dir
 
Spd
km/h
Gust
km/h
Spd
kts
Gust
kts
30/11:30pm 14.0 - 11.3 84 1.5 - - - - - - - 0.0
30/11:00pm 14.6 - 11.9 84 1.5 - - - - - - - 0.0
30/10:30pm 15.2 - 12.3 83 1.6 - - - - - - - 0.0
30/10:00pm 15.4 - 12.5 83 1.6 - - - - - - - 0.0
30/09:30pm 15.9 - 12.6 81 1.9 - - - - - - - 0.0
30/09:00pm 16.5 - 12.8 79 2.1 - - - - - - - 0.0
30/08:30pm 17.2 - 12.9 76 2.5 - - - - - - - 0.0
30/08:00pm 17.9 - 13.4 75 2.6 - - - - - - - 0.0
30/07:30pm 18.5 - 13.6 73 2.9 - - - - - - - 0.0
30/07:00pm 19.4 - 13.8 70 3.3 - - - - - - - 0.0
30/06:30pm 20.2 - 13.6 66 3.9 - - - - - - - 0.0
30/06:00pm 21.4 - 12.3 56 5.3 - - - - - - - 0.0
30/05:30pm 22.6 - 9.7 44 7.2 - - - - - - - 0.0
30/05:00pm 23.7 - 9.3 40 8.0 - - - - - - - 0.0
30/04:30pm 24.6 - 8.5 36 8.8 - - - - - - - 0.0
30/04:00pm 25.8 - 8.8 34 9.4 - - - - - - - 0.0
30/03:30pm 26.2 - 8.2 32 9.9 - - - - - - - 0.0
30/03:00pm 26.5 - 8.5 32 10.0 - - - - - - - 0.0
30/02:30pm 27.1 - 8.5 31 10.3 - - - - - - - 0.0
30/02:00pm 27.1 - 8.5 31 10.3 - - - - - - - 0.0
30/01:30pm 26.7 - 8.6 32 10.1 - - - - - - - 0.0
30/01:00pm 26.2 - 9.1 34 9.6 - - - - - - - 0.0
30/12:30pm 25.9 - 8.4 33 9.7 - - - - - - - 0.0
30/12:00pm 25.0 - 8.5 35 9.1 - - - - - - - 0.0
30/11:30am 24.7 - 9.8 39 8.4 - - - - - - - 0.0
30/11:00am 23.9 - 7.9 36 8.7 - - - - - - - 0.0
30/10:30am 23.6 - 8.5 38 8.2 - - - - - - - 0.0
30/10:00am 22.8 - 8.5 40 7.8 - - - - - - - 0.0
30/09:30am 21.6 - 7.8 41 7.4 - - - - - - - 0.0
30/09:00am 20.9 - 6.4 39 7.5 - - - - - - - 0.0
30/08:30am 19.1 - 6.6 44 6.4 - - - - - - - 0.0
30/08:00am 18.4 - 9.2 55 4.9 - - - - - - - 0.0
30/07:30am 15.5 - 11.3 76 2.3 - - - - - - - 0.0
30/07:00am 12.1 - 10.2 88 1.0 - - - - - - - 0.0
30/06:30am 9.4 - 8.9 97 0.3 - - - - - - - 0.0
30/06:00am 7.9 - 6.7 92 0.6 - - - - - - - 0.0
30/05:30am 8.0 - 6.8 92 0.6 - - - - - - - 0.0
30/05:00am 8.5 - 7.3 92 0.6 - - - - - - - 0.0
30/04:30am 9.0 - 7.9 93 0.5 - - - - - - - 0.0
30/04:00am 8.3 - 6.9 91 0.7 - - - - - - - 0.0
30/03:30am 8.4 - 7.0 91 0.7 - - - - - - - 0.0
30/03:00am 8.8 - 7.6 92 0.6 - - - - - - - 0.0
30/02:30am 9.3 - 8.1 92 0.6 - - - - - - - 0.0
30/02:00am 9.6 - 8.2 91 0.7 - - - - - - - 0.0
30/01:30am 9.9 - 8.3 90 0.8 - - - - - - - 0.0
30/01:00am 10.4 - 8.7 89 0.9 - - - - - - - 0.0
30/12:30am 11.1 - 9.2 88 1.0 - - - - - - - 0.0
30/12:00am 11.5 - 9.4 87 1.1 - - - - - - - 0.0
 
Date/Time
EST
Temp
°C
App
Temp
°C
Dew
Point
Rel
Hum
%
Delta-T
°C
Wind Press
QNH
hPa
Press
MSL
hPa
Rain
since 9 am
mm
Dir
 
Spd
km/h
Gust
km/h
Spd
kts
Gust
kts
29/11:30pm 11.9 - 9.5 85 1.2 - - - - - - - 0.0
29/11:00pm 12.3 - 9.5 83 1.5 - - - - - - - 0.0
29/10:30pm 12.8 - 9.8 82 1.6 - - - - - - - 0.0
29/10:00pm 13.5 - 9.9 79 1.9 - - - - - - - 0.0
29/09:30pm 14.1 - 10.1 77 2.1 - - - - - - - 0.0
29/09:00pm 14.4 - 10.2 76 2.2 - - - - - - - 0.0
29/08:30pm 15.0 - 10.4 74 2.5 - - - - - - - 0.0
29/08:00pm 15.6 - 10.4 71 2.8 - - - - - - - 0.0
29/07:30pm 16.3 - 10.4 68 3.2 - - - - - - - 0.0
29/07:00pm 17.1 - 10.2 64 3.8 - - - - - - - 0.0
29/06:30pm 18.0 - 11.1 64 3.8 - - - - - - - 0.0
29/06:00pm 19.1 - 11.2 60 4.4 - - - - - - - 0.0
29/05:30pm 20.4 - 11.3 56 5.1 - - - - - - - 0.0
29/05:00pm 21.6 - 10.7 50 6.1 - - - - - - - 0.0

Other Formats:

Comma delimited format used in spreadsheet applications
http://www.bom.gov.au/fwo/IDQ60801/IDQ60801.94557.axf

JavaScript Object Notation format (JSON) in row-major order
http://www.bom.gov.au/fwo/IDQ60801/IDQ60801.94557.json